Bauline, Canada
Current Conditions -  °F | °C
As of 7:10 AM on Monday 20 Oct 2014 (Local Time) from CYYT Reporting Station
Light Rain Light Rain  
Wind Chill: 57°   Ceiling: 300
Heat Index: 57°   Visibility: 1.5mi
Dew Point: 57°   Wind: 23mph
Humidity: 100%   Direction: 170°S
Pressure: 29.69"   Gusts: 31mph
Location:  47.72°N, 52.83°W
Report Text: CYYT 200910Z 17020G27KT 1 1/2SM -RA BR OVC003 14/14 A2969 RMK SF8 PRESFR SLP056 DENSITY ALT 700FT
Loading
Personal Weather Stations






























Interactive Weather Map
Tropical Storm Tracking
New forecast layout! Learn more

10-Day Weather Forecast

Advertisements
Track Severe Weather on mobile